createdAt,value
2018-08-20T00:00:05.944Z,980.61
2018-08-20T00:01:05.875Z,980.57
2018-08-20T00:02:05.804Z,980.59
2018-08-20T00:03:05.740Z,980.60
2018-08-20T00:04:05.660Z,980.58
2018-08-20T00:05:05.589Z,980.60
2018-08-20T00:06:05.515Z,980.57
2018-08-20T00:07:05.444Z,980.55
2018-08-20T00:08:05.373Z,980.57
2018-08-20T00:09:05.304Z,980.53
2018-08-20T00:10:05.229Z,980.57
2018-08-20T00:11:05.161Z,980.58
2018-08-20T00:12:05.088Z,980.56
2018-08-20T00:13:05.044Z,980.57
2018-08-20T00:14:04.946Z,980.58
2018-08-20T00:15:04.878Z,980.55
2018-08-20T00:16:04.802Z,980.56
2018-08-20T00:17:04.732Z,980.57
2018-08-20T00:18:04.657Z,980.57
2018-08-20T00:19:04.588Z,980.57
2018-08-20T00:20:04.516Z,980.58
2018-08-20T00:21:04.446Z,980.56
2018-08-20T00:22:04.380Z,980.56
2018-08-20T00:23:04.300Z,980.56
2018-08-20T00:24:04.232Z,980.57
2018-08-20T00:25:04.161Z,980.59
2018-08-20T00:26:04.089Z,980.58
2018-08-20T00:27:04.017Z,980.58
2018-08-20T00:28:03.949Z,980.57
2018-08-20T00:29:03.875Z,980.57
2018-08-20T00:30:03.803Z,980.57
2018-08-20T00:31:03.734Z,980.59
2018-08-20T00:32:03.659Z,980.58
2018-08-20T00:33:03.591Z,980.59
2018-08-20T00:34:03.518Z,980.58
2018-08-20T00:35:03.446Z,980.57
2018-08-20T00:36:03.374Z,980.58
2018-08-20T00:37:03.304Z,980.56
2018-08-20T00:38:03.237Z,980.53
2018-08-20T00:39:03.159Z,980.56
2018-08-20T00:40:03.088Z,980.56
2018-08-20T00:41:03.017Z,980.58
2018-08-20T00:42:02.949Z,980.54
2018-08-20T00:43:02.874Z,980.52
2018-08-20T00:44:02.802Z,980.48
2018-08-20T00:45:02.732Z,980.55
2018-08-20T00:46:02.657Z,980.51
2018-08-20T00:47:02.587Z,980.51
2018-08-20T00:48:02.514Z,980.54
2018-08-20T00:49:02.443Z,980.50
2018-08-20T00:50:02.376Z,980.50
2018-08-20T00:51:02.307Z,980.52
2018-08-20T00:52:02.231Z,980.49
2018-08-20T00:53:02.159Z,980.50
2018-08-20T00:54:02.086Z,980.53
2018-08-20T00:55:02.016Z,980.52
2018-08-20T00:56:01.947Z,980.54
2018-08-20T00:57:01.883Z,980.51
2018-08-20T00:58:01.798Z,980.50
2018-08-20T00:59:01.726Z,980.52
2018-08-20T01:00:01.660Z,980.54
2018-08-20T01:01:01.588Z,980.54
2018-08-20T01:02:01.517Z,980.50
2018-08-20T01:03:01.469Z,980.49
2018-08-20T01:04:01.371Z,980.51
2018-08-20T01:05:01.304Z,980.51
2018-08-20T01:06:01.228Z,980.51
2018-08-20T01:07:01.155Z,980.49
2018-08-20T01:08:01.083Z,980.44
2018-08-20T01:09:01.014Z,980.49
2018-08-20T01:10:00.937Z,980.49
2018-08-20T01:11:00.865Z,980.48
2018-08-20T01:12:00.793Z,980.51
2018-08-20T01:13:00.724Z,980.48
2018-08-20T01:14:00.650Z,980.50
2018-08-20T01:15:00.583Z,980.46
2018-08-20T01:16:00.508Z,980.46
2018-08-20T01:17:00.434Z,980.49
2018-08-20T01:18:00.363Z,980.47
2018-08-20T01:19:00.292Z,980.46
2018-08-20T01:20:00.224Z,980.48
2018-08-20T01:21:00.149Z,980.49
2018-08-20T01:22:00.075Z,980.47
2018-08-20T01:23:00.005Z,980.48
2018-08-20T01:23:59.932Z,980.51
2018-08-20T01:24:59.864Z,980.50
2018-08-20T01:25:59.790Z,980.50
2018-08-20T01:26:59.715Z,980.49
2018-08-20T01:27:59.644Z,980.46
2018-08-20T01:28:59.576Z,980.46
2018-08-20T01:29:59.501Z,980.46
2018-08-20T01:30:59.427Z,980.45
2018-08-20T01:31:59.360Z,980.45
2018-08-20T01:32:59.284Z,980.42
2018-08-20T01:33:59.212Z,980.45
2018-08-20T01:34:59.141Z,980.43
2018-08-20T01:35:59.078Z,980.42
2018-08-20T01:36:58.998Z,980.46
2018-08-20T01:37:58.924Z,980.45
2018-08-20T01:38:58.869Z,980.45
2018-08-20T01:39:58.781Z,980.45
2018-08-20T01:40:58.710Z,980.43
2018-08-20T01:41:58.637Z,980.44
2018-08-20T01:42:58.562Z,980.44
2018-08-20T01:43:58.494Z,980.48
2018-08-20T01:44:58.422Z,980.45
2018-08-20T01:45:58.348Z,980.45
2018-08-20T01:46:58.284Z,980.45
2018-08-20T01:47:58.203Z,980.42
2018-08-20T01:48:58.132Z,980.45
2018-08-20T01:49:58.060Z,980.44
2018-08-20T01:50:57.987Z,980.48
2018-08-20T01:51:57.916Z,980.46
2018-08-20T01:52:57.844Z,980.47
2018-08-20T01:53:57.773Z,980.46
2018-08-20T01:54:57.704Z,980.50
2018-08-20T01:55:57.626Z,980.53
2018-08-20T01:56:57.557Z,980.49
2018-08-20T01:57:57.488Z,980.50
2018-08-20T01:58:57.410Z,980.55
2018-08-20T01:59:57.344Z,980.56
2018-08-20T02:00:57.275Z,980.56
2018-08-20T02:01:57.194Z,980.54
2018-08-20T02:02:57.121Z,980.54
2018-08-20T02:03:57.050Z,980.54
2018-08-20T02:04:56.977Z,980.54
2018-08-20T02:05:56.908Z,980.57
2018-08-20T02:06:56.833Z,980.55
2018-08-20T02:07:56.759Z,980.53
2018-08-20T02:08:56.686Z,980.55
2018-08-20T02:09:56.618Z,980.56
2018-08-20T02:10:56.545Z,980.58
2018-08-20T02:11:56.473Z,980.57
2018-08-20T02:12:56.400Z,980.55
2018-08-20T02:13:56.326Z,980.59
2018-08-20T02:14:56.253Z,980.57
2018-08-20T02:15:56.184Z,980.53
2018-08-20T02:16:56.113Z,980.55
2018-08-20T02:17:56.041Z,980.58
2018-08-20T02:18:55.966Z,980.58
2018-08-20T02:19:55.894Z,980.61
2018-08-20T02:20:55.822Z,980.55
2018-08-20T02:21:55.748Z,980.61
2018-08-20T02:22:55.675Z,980.54
2018-08-20T02:23:55.602Z,980.57
2018-08-20T02:24:55.530Z,980.56
2018-08-20T02:25:55.458Z,980.56
2018-08-20T02:26:55.385Z,980.54
2018-08-20T02:27:55.315Z,980.58
2018-08-20T02:28:55.241Z,980.54
2018-08-20T02:29:55.169Z,980.57
2018-08-20T02:30:55.097Z,980.57
2018-08-20T02:31:55.044Z,980.59
2018-08-20T02:32:54.952Z,980.59
2018-08-20T02:33:54.880Z,980.54
2018-08-20T02:34:54.806Z,980.52
2018-08-20T02:35:54.734Z,980.53
2018-08-20T02:36:54.662Z,980.53
2018-08-20T02:37:54.587Z,980.51
2018-08-20T02:38:54.516Z,980.52
2018-08-20T02:39:54.451Z,980.51
2018-08-20T02:40:54.369Z,980.49
2018-08-20T02:41:54.302Z,980.49
2018-08-20T02:42:54.227Z,980.52
2018-08-20T02:43:54.154Z,980.56
2018-08-20T02:44:54.081Z,980.52
2018-08-20T02:45:54.013Z,980.54
2018-08-20T02:46:53.938Z,980.54
2018-08-20T02:47:53.865Z,980.54
2018-08-20T02:48:53.790Z,980.53
2018-08-20T02:49:53.717Z,980.52
2018-08-20T02:50:53.648Z,980.52
2018-08-20T02:51:53.578Z,980.52
2018-08-20T02:52:53.499Z,980.50
2018-08-20T02:53:53.430Z,980.47
2018-08-20T02:54:53.355Z,980.48
2018-08-20T02:55:53.283Z,980.50
2018-08-20T02:56:53.214Z,980.47
2018-08-20T02:57:53.136Z,980.45
2018-08-20T02:58:53.068Z,980.45
2018-08-20T02:59:53.000Z,980.45
2018-08-20T03:00:52.920Z,980.45
2018-08-20T03:01:52.848Z,980.48
2018-08-20T03:02:52.780Z,980.45
2018-08-20T03:03:52.705Z,980.44
2018-08-20T03:04:52.637Z,980.41
2018-08-20T03:05:52.568Z,980.43
2018-08-20T03:06:52.485Z,980.44
2018-08-20T03:07:52.410Z,980.48
2018-08-20T03:08:52.344Z,980.48
2018-08-20T03:09:52.265Z,980.46
2018-08-20T03:10:52.197Z,980.45
2018-08-20T03:11:52.121Z,980.46
2018-08-20T03:12:52.048Z,980.46
2018-08-20T03:13:51.974Z,980.49
2018-08-20T03:14:51.904Z,980.47
2018-08-20T03:15:51.831Z,980.45
2018-08-20T03:16:51.767Z,980.44
2018-08-20T03:17:51.685Z,980.44
2018-08-20T03:18:51.611Z,980.46
2018-08-20T03:19:51.539Z,980.47
2018-08-20T03:20:51.471Z,980.47
2018-08-20T03:21:51.397Z,980.48
2018-08-20T03:22:51.322Z,980.45
2018-08-20T03:23:51.247Z,980.46
2018-08-20T03:24:51.179Z,980.45
2018-08-20T03:25:51.105Z,980.44
2018-08-20T03:26:51.031Z,980.44
2018-08-20T03:27:50.960Z,980.41
2018-08-20T03:28:50.888Z,980.41
2018-08-20T03:29:50.813Z,980.40
2018-08-20T03:30:50.746Z,980.41
2018-08-20T03:31:50.670Z,980.40
2018-08-20T03:32:50.596Z,980.42
2018-08-20T03:33:50.521Z,980.41
2018-08-20T03:34:50.451Z,980.41
2018-08-20T03:35:50.382Z,980.43
2018-08-20T03:36:50.305Z,980.44
2018-08-20T03:37:50.233Z,980.41
2018-08-20T03:38:50.158Z,980.45
2018-08-20T03:39:50.089Z,980.43
2018-08-20T03:40:50.015Z,980.47
2018-08-20T03:41:49.939Z,980.45
2018-08-20T03:42:49.867Z,980.41
2018-08-20T03:43:49.794Z,980.42
2018-08-20T03:44:49.726Z,980.42
2018-08-20T03:45:49.650Z,980.43
2018-08-20T03:46:49.576Z,980.48
2018-08-20T03:47:49.504Z,980.48
2018-08-20T03:48:49.437Z,980.52
2018-08-20T03:49:49.359Z,980.53
2018-08-20T03:50:49.287Z,980.49
2018-08-20T03:51:49.213Z,980.54
2018-08-20T03:52:49.140Z,980.59
2018-08-20T03:53:49.066Z,980.59
2018-08-20T03:54:48.994Z,980.55
2018-08-20T03:55:48.920Z,980.55
2018-08-20T03:56:48.852Z,980.58
2018-08-20T03:57:48.777Z,980.58
2018-08-20T03:58:48.701Z,980.57
2018-08-20T03:59:48.629Z,980.59
2018-08-20T04:00:48.556Z,980.59
2018-08-20T04:01:48.482Z,980.59
2018-08-20T04:02:48.412Z,980.57
2018-08-20T04:03:48.339Z,980.55
2018-08-20T04:04:48.265Z,980.63
2018-08-20T04:05:48.197Z,980.59
2018-08-20T04:06:48.121Z,980.60
2018-08-20T04:07:48.047Z,980.57
2018-08-20T04:08:47.973Z,980.60
2018-08-20T04:09:47.901Z,980.59
2018-08-20T04:10:47.832Z,980.55
2018-08-20T04:11:47.757Z,980.58
2018-08-20T04:12:47.684Z,980.59
2018-08-20T04:13:47.607Z,980.59
2018-08-20T04:14:47.537Z,980.57
2018-08-20T04:15:47.468Z,980.59
2018-08-20T04:16:47.392Z,980.59
2018-08-20T04:17:47.318Z,980.61
2018-08-20T04:18:47.246Z,980.59
2018-08-20T04:19:47.182Z,980.60
2018-08-20T04:20:47.100Z,980.62
2018-08-20T04:21:47.026Z,980.62
2018-08-20T04:22:46.952Z,980.64
2018-08-20T04:23:46.894Z,980.60
2018-08-20T04:24:46.822Z,980.61
2018-08-20T04:25:46.733Z,980.64
2018-08-20T04:26:46.665Z,980.62
2018-08-20T04:27:46.588Z,980.63
2018-08-20T04:28:46.516Z,980.63
2018-08-20T04:29:46.450Z,980.64
2018-08-20T04:30:46.417Z,980.64
2018-08-20T04:31:46.303Z,980.65
2018-08-20T04:32:46.225Z,980.61
2018-08-20T04:33:46.149Z,980.65
2018-08-20T04:34:46.080Z,980.67
2018-08-20T04:35:46.004Z,980.67
2018-08-20T04:36:45.933Z,980.66
2018-08-20T04:37:45.859Z,980.65
2018-08-20T04:38:45.787Z,980.65
2018-08-20T04:39:45.714Z,980.66
2018-08-20T04:40:45.640Z,980.69
2018-08-20T04:41:45.572Z,980.70
2018-08-20T04:42:45.498Z,980.69
2018-08-20T04:43:45.424Z,980.72
2018-08-20T04:44:45.352Z,980.72
2018-08-20T04:45:45.276Z,980.68
2018-08-20T04:46:45.202Z,980.71
2018-08-20T04:47:45.131Z,980.73
2018-08-20T04:48:45.064Z,980.74
2018-08-20T04:49:45.006Z,980.74
2018-08-20T04:50:45.011Z,980.74
2018-08-20T04:51:44.840Z,980.77
2018-08-20T04:52:44.770Z,980.77
2018-08-20T04:53:44.692Z,980.76
2018-08-20T04:54:44.622Z,980.79
2018-08-20T04:55:44.547Z,980.77
2018-08-20T04:56:44.475Z,980.82
2018-08-20T04:57:44.399Z,980.80
2018-08-20T04:58:44.328Z,980.84
2018-08-20T04:59:44.257Z,980.84
2018-08-20T05:00:44.183Z,980.91
2018-08-20T05:01:44.114Z,980.86
2018-08-20T05:02:44.039Z,980.86
2018-08-20T05:03:43.966Z,980.90
2018-08-20T05:04:43.891Z,980.89
2018-08-20T05:05:43.820Z,980.88
2018-08-20T05:06:43.748Z,980.89
2018-08-20T05:07:43.673Z,980.88
2018-08-20T05:08:43.604Z,980.88
2018-08-20T05:09:43.534Z,980.86
2018-08-20T05:10:43.456Z,980.91
2018-08-20T05:11:43.385Z,980.87
2018-08-20T05:12:43.312Z,980.85
2018-08-20T05:13:43.238Z,980.84
2018-08-20T05:14:43.169Z,980.87
2018-08-20T05:15:43.090Z,980.86
2018-08-20T05:16:43.020Z,980.87
2018-08-20T05:17:42.946Z,980.88
2018-08-20T05:18:42.886Z,980.83
2018-08-20T05:19:42.798Z,980.84
2018-08-20T05:20:42.728Z,980.83
2018-08-20T05:21:42.655Z,980.83
2018-08-20T05:22:42.582Z,980.81
2018-08-20T05:23:42.512Z,980.80
2018-08-20T05:24:42.446Z,980.83
2018-08-20T05:25:42.365Z,980.79
2018-08-20T05:26:42.293Z,980.82
2018-08-20T05:27:42.216Z,980.81
2018-08-20T05:28:42.143Z,980.83
2018-08-20T05:29:42.076Z,980.81
2018-08-20T05:30:42.000Z,980.80
2018-08-20T05:31:41.943Z,980.82
2018-08-20T05:32:41.859Z,980.84
2018-08-20T05:33:41.783Z,980.82
2018-08-20T05:34:41.712Z,980.81
2018-08-20T05:35:41.640Z,980.86
2018-08-20T05:36:41.562Z,980.88
2018-08-20T05:37:41.491Z,980.85
2018-08-20T05:38:41.420Z,980.89
2018-08-20T05:39:41.347Z,980.90
2018-08-20T05:40:41.283Z,980.92
2018-08-20T05:41:41.203Z,980.91
2018-08-20T05:42:41.131Z,980.93
2018-08-20T05:43:41.053Z,980.93
2018-08-20T05:44:41.002Z,980.91
2018-08-20T05:45:40.949Z,980.96
2018-08-20T05:46:40.837Z,980.96
2018-08-20T05:47:40.763Z,981.00
2018-08-20T05:48:40.697Z,980.97
2018-08-20T05:49:40.616Z,980.99
2018-08-20T05:50:40.548Z,980.96
2018-08-20T05:51:40.488Z,980.99
2018-08-20T05:52:40.449Z,981.01
2018-08-20T05:53:40.329Z,981.00
2018-08-20T05:54:40.255Z,981.04
2018-08-20T05:55:40.185Z,981.03
2018-08-20T05:56:40.111Z,981.04
2018-08-20T05:57:40.040Z,981.03
2018-08-20T05:58:39.971Z,981.06
2018-08-20T05:59:39.893Z,981.06
2018-08-20T06:00:39.825Z,981.07
2018-08-20T06:01:39.749Z,981.08
2018-08-20T06:02:39.675Z,981.06
2018-08-20T06:03:39.604Z,981.07
2018-08-20T06:04:39.534Z,981.02
2018-08-20T06:05:39.457Z,981.03
2018-08-20T06:06:39.389Z,981.01
2018-08-20T06:07:39.325Z,981.00
2018-08-20T06:08:39.243Z,981.01
2018-08-20T06:09:39.171Z,980.98
2018-08-20T06:10:39.109Z,981.00
2018-08-20T06:11:39.028Z,981.03
2018-08-20T06:12:38.955Z,980.99
2018-08-20T06:13:38.901Z,981.01
2018-08-20T06:14:38.822Z,981.00
2018-08-20T06:15:38.744Z,981.03
2018-08-20T06:16:38.667Z,981.02
2018-08-20T06:17:38.592Z,981.05
2018-08-20T06:18:38.538Z,981.05
2018-08-20T06:19:38.449Z,981.01
2018-08-20T06:20:38.382Z,981.05
2018-08-20T06:21:38.314Z,981.05
2018-08-20T06:22:38.329Z,981.07
2018-08-20T06:23:38.164Z,981.05
2018-08-20T06:24:38.099Z,981.04
2018-08-20T06:25:38.019Z,981.06
2018-08-20T06:26:37.948Z,981.07
2018-08-20T06:27:37.880Z,981.08
2018-08-20T06:28:37.863Z,981.04
2018-08-20T06:29:37.738Z,981.06
2018-08-20T06:30:37.665Z,981.08
2018-08-20T06:31:37.611Z,981.08
2018-08-20T06:32:37.542Z,981.08
2018-08-20T06:33:37.446Z,981.08
2018-08-20T06:34:37.375Z,981.08
2018-08-20T06:35:37.327Z,981.09
2018-08-20T06:36:37.231Z,981.10
2018-08-20T06:37:37.160Z,981.13
2018-08-20T06:38:37.088Z,981.17
2018-08-20T06:39:37.018Z,981.14
2018-08-20T06:40:36.948Z,981.17
2018-08-20T06:41:36.936Z,981.18
2018-08-20T06:42:36.807Z,981.17
2018-08-20T06:43:36.735Z,981.20
2018-08-20T06:44:36.669Z,981.20
2018-08-20T06:45:36.597Z,981.15
2018-08-20T06:46:36.519Z,981.23
2018-08-20T06:47:36.450Z,981.15
2018-08-20T06:48:36.403Z,981.17
2018-08-20T06:49:36.308Z,981.15
2018-08-20T06:50:36.234Z,981.16
2018-08-20T06:51:36.164Z,981.14
2018-08-20T06:52:36.096Z,981.14
2018-08-20T06:53:36.022Z,981.12
2018-08-20T06:54:35.972Z,981.16
2018-08-20T06:55:36.952Z,981.16
2018-08-20T06:56:35.808Z,981.18
2018-08-20T06:57:35.736Z,981.19
2018-08-20T06:58:35.670Z,981.20
2018-08-20T06:59:35.596Z,981.16
2018-08-20T07:00:35.525Z,981.15
2018-08-20T07:01:35.455Z,981.17
2018-08-20T07:02:35.382Z,981.18
2018-08-20T07:03:35.314Z,981.21
2018-08-20T07:04:35.244Z,981.18
2018-08-20T07:05:35.172Z,981.18
2018-08-20T07:06:35.110Z,981.21
2018-08-20T07:07:35.030Z,981.18
2018-08-20T07:08:34.964Z,981.23
2018-08-20T07:09:34.900Z,981.23
2018-08-20T07:10:34.823Z,981.22
2018-08-20T07:11:34.763Z,981.22
2018-08-20T07:12:34.754Z,981.20
2018-08-20T07:13:34.672Z,981.19
2018-08-20T07:14:34.615Z,981.17
2018-08-20T07:15:34.524Z,981.20
2018-08-20T07:16:34.480Z,981.15
2018-08-20T07:17:34.421Z,981.19
2018-08-20T07:18:34.291Z,981.18
2018-08-20T07:19:34.293Z,981.19
2018-08-20T07:20:34.118Z,981.20
2018-08-20T07:21:34.103Z,981.24
2018-08-20T07:22:34.030Z,981.26
2018-08-20T07:23:34.132Z,981.27
2018-08-20T07:24:33.919Z,981.25
2018-08-20T07:25:33.831Z,981.29
2018-08-20T07:26:33.779Z,981.29
2018-08-20T07:27:33.712Z,981.30
2018-08-20T07:28:33.626Z,981.27
2018-08-20T07:29:33.560Z,981.28
2018-08-20T07:30:33.481Z,981.30
2018-08-20T07:31:33.405Z,981.27
2018-08-20T07:32:33.331Z,981.24
2018-08-20T07:33:33.299Z,981.28
2018-08-20T07:34:33.192Z,981.25
2018-08-20T07:35:33.130Z,981.26
2018-08-20T07:36:33.066Z,981.26
2018-08-20T07:37:32.990Z,981.29
2018-08-20T07:38:32.937Z,981.30
2018-08-20T07:39:32.838Z,981.30
2018-08-20T07:40:32.782Z,981.31
2018-08-20T07:41:32.724Z,981.33
2018-08-20T07:42:33.642Z,981.34
2018-08-20T07:43:32.576Z,981.35
2018-08-20T07:44:32.518Z,981.31
2018-08-20T07:45:32.423Z,981.33
2018-08-20T07:46:32.298Z,981.31
2018-08-20T07:47:32.286Z,981.34
2018-08-20T07:48:32.207Z,981.28
2018-08-20T07:49:32.802Z,981.32
2018-08-20T07:50:32.064Z,981.26
2018-08-20T07:51:33.017Z,981.24
2018-08-20T07:52:31.924Z,981.26
2018-08-20T07:53:31.857Z,981.25
2018-08-20T07:54:31.800Z,981.25
2018-08-20T07:55:31.753Z,981.27
2018-08-20T07:56:33.321Z,981.27
2018-08-20T07:57:31.578Z,981.27
2018-08-20T07:58:31.452Z,981.33
2018-08-20T07:59:31.375Z,981.32
2018-08-20T08:00:31.304Z,981.33
2018-08-20T08:01:31.238Z,981.35
2018-08-20T08:02:31.179Z,981.31
2018-08-20T08:03:31.119Z,981.38
2018-08-20T08:04:31.069Z,981.35
2018-08-20T08:05:30.959Z,981.32
2018-08-20T08:06:30.902Z,981.32
2018-08-20T08:07:30.823Z,981.35
2018-08-20T08:08:30.750Z,981.33
2018-08-20T08:09:30.676Z,981.35
2018-08-20T08:10:30.608Z,981.34
2018-08-20T08:11:30.541Z,981.38
2018-08-20T08:12:30.466Z,981.36
2018-08-20T08:13:30.398Z,981.36
2018-08-20T08:14:30.330Z,981.32
2018-08-20T08:15:30.267Z,981.33
2018-08-20T08:16:30.189Z,981.32
2018-08-20T08:17:30.123Z,981.34
2018-08-20T08:18:30.051Z,981.33
2018-08-20T08:19:29.984Z,981.32
2018-08-20T08:20:29.912Z,981.31
2018-08-20T08:21:29.843Z,981.31
2018-08-20T08:22:29.777Z,981.32
2018-08-20T08:23:29.708Z,981.29
2018-08-20T08:24:29.632Z,981.30
2018-08-20T08:25:29.565Z,981.30
2018-08-20T08:26:29.551Z,981.26
2018-08-20T08:27:29.431Z,981.24
2018-08-20T08:28:29.354Z,981.24
2018-08-20T08:29:29.290Z,981.28
2018-08-20T08:30:29.218Z,981.24
2018-08-20T08:31:29.158Z,981.21
2018-08-20T08:32:29.082Z,981.22
2018-08-20T08:33:29.007Z,981.22
2018-08-20T08:34:28.942Z,981.22
2018-08-20T08:35:28.873Z,981.23
2018-08-20T08:36:28.805Z,981.27
2018-08-20T08:37:28.736Z,981.27
2018-08-20T08:38:28.663Z,981.31
2018-08-20T08:39:28.593Z,981.27
2018-08-20T08:40:28.527Z,981.25
2018-08-20T08:41:28.455Z,981.24
2018-08-20T08:42:28.385Z,981.28
2018-08-20T08:43:28.315Z,981.28
2018-08-20T08:44:28.245Z,981.28
2018-08-20T08:45:28.176Z,981.33
2018-08-20T08:46:28.109Z,981.33
2018-08-20T08:47:28.041Z,981.27
2018-08-20T08:48:27.970Z,981.23
2018-08-20T08:49:27.903Z,981.27
2018-08-20T08:50:27.834Z,981.29
2018-08-20T08:51:27.761Z,981.22
2018-08-20T08:52:27.698Z,981.24
2018-08-20T08:53:27.636Z,981.28
2018-08-20T08:54:27.558Z,981.25
2018-08-20T08:55:27.486Z,981.25
2018-08-20T08:56:27.434Z,981.22
2018-08-20T08:57:27.360Z,981.26
2018-08-20T08:58:27.281Z,981.26
2018-08-20T08:59:27.220Z,981.25
2018-08-20T09:00:27.220Z,981.29
2018-08-20T09:01:27.078Z,981.25
2018-08-20T09:02:27.011Z,981.23
2018-08-20T09:03:26.936Z,981.20
2018-08-20T09:04:26.870Z,981.23
2018-08-20T09:05:26.802Z,981.19
2018-08-20T09:06:26.731Z,981.22
2018-08-20T09:07:26.689Z,981.20
2018-08-20T09:08:26.598Z,981.24
2018-08-20T09:09:26.525Z,981.23
2018-08-20T09:10:26.492Z,981.20
2018-08-20T09:11:26.386Z,981.23
2018-08-20T09:12:26.328Z,981.16
2018-08-20T09:13:26.256Z,981.24
2018-08-20T09:14:26.184Z,981.22
2018-08-20T09:15:26.114Z,981.18
2018-08-20T09:16:26.051Z,981.21
2018-08-20T09:17:25.978Z,981.17
2018-08-20T09:18:25.910Z,981.15
2018-08-20T09:19:25.845Z,981.17
2018-08-20T09:20:25.773Z,981.13
2018-08-20T09:21:25.701Z,981.17
2018-08-20T09:22:25.635Z,981.13
2018-08-20T09:23:25.567Z,981.11
2018-08-20T09:24:25.511Z,981.11
2018-08-20T09:25:32.648Z,981.15
2018-08-20T09:27:29.309Z,981.16
2018-08-20T09:28:29.190Z,981.14
2018-08-20T09:29:29.124Z,981.12
2018-08-20T09:30:29.054Z,981.15
2018-08-20T09:31:28.984Z,981.14
2018-08-20T09:32:28.918Z,981.17
2018-08-20T09:33:28.848Z,981.17
2018-08-20T09:34:28.780Z,981.16
2018-08-20T09:35:28.712Z,981.13
2018-08-20T09:36:28.650Z,981.15
2018-08-20T09:37:28.576Z,981.14
2018-08-20T09:38:28.508Z,981.06
2018-08-20T09:39:28.447Z,981.06
2018-08-20T09:40:28.371Z,981.07
2018-08-20T09:41:28.303Z,981.09
2018-08-20T09:42:28.234Z,981.08
2018-08-20T09:43:28.172Z,981.12
2018-08-20T09:44:28.100Z,981.10
2018-08-20T09:45:28.036Z,981.09
2018-08-20T09:46:27.961Z,981.05
2018-08-20T09:47:27.895Z,981.03
2018-08-20T09:48:27.826Z,981.04
2018-08-20T09:49:27.758Z,981.05
2018-08-20T09:50:27.688Z,981.01
2018-08-20T09:51:27.621Z,981.07
2018-08-20T09:52:27.552Z,981.04
2018-08-20T09:53:27.494Z,981.01
2018-08-20T09:54:27.416Z,980.95
2018-08-20T09:55:27.350Z,981.04
2018-08-20T09:56:27.287Z,981.05
2018-08-20T09:57:27.215Z,980.96
2018-08-20T09:58:27.145Z,980.98
2018-08-20T09:59:27.081Z,981.01
2018-08-20T10:00:27.010Z,980.98
2018-08-20T10:01:26.942Z,980.97
2018-08-20T10:02:26.880Z,981.03
2018-08-20T10:03:26.805Z,981.05
2018-08-20T10:04:26.743Z,981.00
2018-08-20T10:05:26.678Z,980.98
2018-08-20T10:06:26.603Z,980.97
2018-08-20T10:07:26.586Z,980.98
2018-08-20T10:08:26.465Z,980.96
2018-08-20T10:09:26.397Z,981.00
2018-08-20T10:10:26.328Z,980.99
2018-08-20T10:11:26.261Z,980.99
2018-08-20T10:12:26.193Z,980.99
2018-08-20T10:13:26.126Z,981.01
2018-08-20T10:14:26.063Z,981.01
2018-08-20T10:15:25.998Z,980.97
2018-08-20T10:16:25.924Z,980.99
2018-08-20T10:17:25.858Z,980.99
2018-08-20T10:18:25.810Z,980.96
2018-08-20T10:19:25.722Z,980.93
2018-08-20T10:20:25.652Z,980.92
2018-08-20T10:21:25.585Z,980.96
2018-08-20T10:22:25.519Z,980.92
2018-08-20T10:23:25.450Z,981.00
2018-08-20T10:24:25.382Z,981.03
2018-08-20T10:25:25.318Z,980.97
2018-08-20T10:26:25.247Z,980.92
2018-08-20T10:27:25.177Z,980.87
2018-08-20T10:28:25.114Z,980.89
2018-08-20T10:29:25.049Z,980.86
2018-08-20T10:30:24.976Z,980.85
2018-08-20T10:31:24.907Z,980.86
2018-08-20T10:32:24.845Z,980.90
2018-08-20T10:33:24.772Z,980.83
2018-08-20T10:34:24.707Z,980.78
2018-08-20T10:35:24.637Z,980.81
2018-08-20T10:36:24.573Z,980.87
2018-08-20T10:37:24.504Z,980.78
2018-08-20T10:38:24.437Z,980.80
2018-08-20T10:39:24.368Z,980.77
2018-08-20T10:40:24.300Z,980.87
2018-08-20T10:41:24.239Z,980.84
2018-08-20T10:42:24.167Z,980.90
2018-08-20T10:43:24.099Z,980.83
2018-08-20T10:44:24.036Z,980.83
2018-08-20T10:45:23.966Z,980.80
2018-08-20T10:46:23.899Z,980.81
2018-08-20T10:47:23.837Z,980.80
2018-08-20T10:48:23.767Z,980.84
2018-08-20T10:49:23.697Z,980.86
2018-08-20T10:50:23.634Z,980.85
2018-08-20T10:51:23.564Z,980.84
2018-08-20T10:52:23.496Z,980.87
2018-08-20T10:53:23.430Z,980.83
2018-08-20T10:54:23.367Z,980.83
2018-08-20T10:55:23.302Z,980.85
2018-08-20T10:56:23.309Z,980.85
2018-08-20T10:57:23.167Z,980.85
2018-08-20T10:58:23.096Z,980.80
2018-08-20T10:59:23.028Z,980.73
2018-08-20T11:00:22.962Z,980.74
2018-08-20T11:01:22.894Z,980.73
2018-08-20T11:02:22.831Z,980.74
2018-08-20T11:03:22.760Z,980.75
2018-08-20T11:04:22.694Z,980.74
2018-08-20T11:05:22.627Z,980.77
2018-08-20T11:06:22.560Z,980.71
2018-08-20T11:07:22.499Z,980.70
2018-08-20T11:08:22.429Z,980.76
2018-08-20T11:09:22.364Z,980.69
2018-08-20T11:10:22.293Z,980.69
2018-08-20T11:11:22.230Z,980.72
2018-08-20T11:12:22.165Z,980.69
2018-08-20T11:13:22.097Z,980.61
2018-08-20T11:14:22.032Z,980.68
2018-08-20T11:15:21.960Z,980.69
2018-08-20T11:16:21.897Z,980.71
2018-08-20T11:17:21.835Z,980.68
2018-08-20T11:18:21.830Z,980.66
2018-08-20T11:19:21.695Z,980.61
2018-08-20T11:20:21.631Z,980.67
2018-08-20T11:21:21.563Z,980.66
2018-08-20T11:22:21.498Z,980.57
2018-08-20T11:23:21.430Z,980.55
2018-08-20T11:24:21.366Z,980.63
2018-08-20T11:25:21.298Z,980.60
2018-08-20T11:26:21.235Z,980.62
2018-08-20T11:27:21.165Z,980.59
2018-08-20T11:28:21.098Z,980.65
2018-08-20T11:29:21.033Z,980.59
2018-08-20T11:30:21.069Z,980.66
2018-08-20T11:31:20.900Z,980.62
2018-08-20T11:32:20.834Z,980.59
2018-08-20T11:33:20.768Z,980.54
2018-08-20T11:34:20.701Z,980.60
2018-08-20T11:35:20.634Z,980.56
2018-08-20T11:36:20.569Z,980.57
2018-08-20T11:37:20.505Z,980.54
2018-08-20T11:38:20.435Z,980.54
2018-08-20T11:39:20.373Z,980.55
2018-08-20T11:40:20.304Z,980.56
2018-08-20T11:41:20.236Z,980.53
2018-08-20T11:42:20.170Z,980.47
2018-08-20T11:43:20.151Z,980.45
2018-08-20T11:44:20.042Z,980.50
2018-08-20T11:45:19.978Z,980.51
2018-08-20T11:46:19.908Z,980.47
2018-08-20T11:47:19.840Z,980.49
2018-08-20T11:48:19.772Z,980.55
2018-08-20T11:49:19.707Z,980.47
2018-08-20T11:50:19.641Z,980.41
2018-08-20T11:51:19.579Z,980.56
2018-08-20T11:52:19.512Z,980.46
2018-08-20T11:53:19.467Z,980.43
2018-08-20T11:54:19.378Z,980.38
2018-08-20T11:55:19.311Z,980.39
2018-08-20T11:56:19.248Z,980.40
2018-08-20T11:57:19.180Z,980.35
2018-08-20T11:58:19.117Z,980.37
2018-08-20T11:59:19.049Z,980.36
2018-08-20T12:00:18.979Z,980.34
2018-08-20T12:01:18.920Z,980.32
2018-08-20T12:02:18.850Z,980.34
2018-08-20T12:03:18.783Z,980.31
2018-08-20T12:04:18.717Z,980.34
2018-08-20T12:05:18.656Z,980.35
2018-08-20T12:06:18.588Z,980.39
2018-08-20T12:07:18.524Z,980.32
2018-08-20T12:08:18.455Z,980.31
2018-08-20T12:09:18.390Z,980.30
2018-08-20T12:10:18.328Z,980.35
2018-08-20T12:11:18.280Z,980.31
2018-08-20T12:12:18.194Z,980.37
2018-08-20T12:13:18.136Z,980.43
2018-08-20T12:14:18.064Z,980.35
2018-08-20T12:15:18.012Z,980.39
2018-08-20T12:16:17.945Z,980.49
2018-08-20T12:17:17.889Z,980.35
2018-08-20T12:18:17.811Z,980.36
2018-08-20T12:19:17.745Z,980.37
2018-08-20T12:20:17.683Z,980.45
2018-08-20T12:21:17.623Z,980.36
2018-08-20T12:22:17.567Z,980.34
2018-08-20T12:23:17.525Z,980.32
2018-08-20T12:24:17.437Z,980.29
2018-08-20T12:25:17.380Z,980.33
2018-08-20T12:26:17.317Z,980.24
2018-08-20T12:27:17.256Z,980.31
2018-08-20T12:28:17.205Z,980.30